createdAt,value
2022-10-15T00:00:02.679Z,13.28
2022-10-15T00:05:02.369Z,13.3
2022-10-15T00:10:02.991Z,13.34
2022-10-15T00:15:02.669Z,13.34
2022-10-15T00:20:02.348Z,13.33
2022-10-15T00:25:03.101Z,13.35
2022-10-15T00:30:06.475Z,13.34
2022-10-15T00:35:03.024Z,13.33
2022-10-15T00:45:02.962Z,13.31
2022-10-15T00:50:02.648Z,13.32
2022-10-15T00:55:04.531Z,13.36
2022-10-15T01:00:03.007Z,13.36
2022-10-15T01:05:02.466Z,13.33
2022-10-15T01:10:03.163Z,13.28
2022-10-15T01:15:02.700Z,13.25
2022-10-15T01:20:02.521Z,13.23
2022-10-15T01:25:03.165Z,13.15
2022-10-15T01:30:02.815Z,13.08
2022-10-15T01:35:02.508Z,13.05
2022-10-15T01:40:03.150Z,13
2022-10-15T01:45:03.174Z,12.97
2022-10-15T01:50:02.947Z,12.98
2022-10-15T01:55:04.293Z,13
2022-10-15T02:00:02.369Z,13
2022-10-15T02:05:03.040Z,12.94
2022-10-15T02:10:02.730Z,12.97
2022-10-15T02:15:02.427Z,13.04
2022-10-15T02:20:03.288Z,13.13
2022-10-15T02:25:02.713Z,13.25
2022-10-15T02:35:03.117Z,13.42
2022-10-15T02:40:02.824Z,13.56
2022-10-15T02:45:02.693Z,13.7
2022-10-15T02:50:03.278Z,13.77
2022-10-15T02:55:04.300Z,13.82
2022-10-15T03:00:02.633Z,13.89
2022-10-15T03:05:02.399Z,13.88
2022-10-15T03:10:03.073Z,13.89
2022-10-15T03:15:02.845Z,13.83
2022-10-15T03:20:02.493Z,13.78
2022-10-15T03:25:03.142Z,13.88
2022-10-15T03:30:02.795Z,13.89
2022-10-15T03:35:02.393Z,13.89
2022-10-15T03:40:03.315Z,14
2022-10-15T03:45:02.718Z,14.02
2022-10-15T03:50:02.522Z,13.98
2022-10-15T03:55:04.870Z,13.93
2022-10-15T04:00:03.023Z,13.88
2022-10-15T04:05:02.671Z,13.85
2022-10-15T04:10:02.604Z,13.84
2022-10-15T04:15:02.469Z,13.81
2022-10-15T04:20:03.109Z,13.93
2022-10-15T04:25:02.790Z,13.97
2022-10-15T04:30:02.636Z,14.01
2022-10-15T04:35:03.244Z,14.04
2022-10-15T04:40:02.867Z,13.99
2022-10-15T04:45:02.526Z,13.93
2022-10-15T04:50:03.352Z,13.91
2022-10-15T04:55:04.469Z,13.88
2022-10-15T05:00:02.867Z,13.89
2022-10-15T05:05:02.407Z,13.89
2022-10-15T05:10:02.976Z,13.88
2022-10-15T05:15:02.628Z,13.87
2022-10-15T05:20:02.248Z,13.88
2022-10-15T05:25:02.879Z,13.87
2022-10-15T05:30:02.543Z,13.87
2022-10-15T05:35:02.337Z,13.9
2022-10-15T05:40:03.355Z,13.91
2022-10-15T05:45:03.261Z,13.9
2022-10-15T05:50:02.851Z,13.93
2022-10-15T05:55:03.733Z,14.01
2022-10-15T06:00:03.554Z,14.11
2022-10-15T06:05:03.380Z,14.13
2022-10-15T06:10:03.117Z,14.16
2022-10-15T06:15:02.352Z,14.16
2022-10-15T06:20:03.025Z,14.19
2022-10-15T06:25:02.640Z,14.24
2022-10-15T06:30:02.385Z,14.32
2022-10-15T06:35:02.965Z,14.38
2022-10-15T06:40:02.584Z,14.45
2022-10-15T06:45:02.257Z,14.5
2022-10-15T06:50:02.837Z,14.62
2022-10-15T06:55:03.730Z,14.72
2022-10-15T07:00:02.292Z,14.86
2022-10-15T07:05:02.856Z,14.95
2022-10-15T07:10:02.597Z,14.9
2022-10-15T07:15:02.502Z,14.98
2022-10-15T07:20:03.123Z,15.11
2022-10-15T07:25:02.744Z,15.28
2022-10-15T07:30:02.424Z,15.61
2022-10-15T07:35:03.022Z,15.61
2022-10-15T07:40:02.679Z,16.03
2022-10-15T07:45:03.229Z,15.95
2022-10-15T07:50:02.811Z,16.26
2022-10-15T07:55:04.225Z,16.32
2022-10-15T08:00:02.456Z,16.22
2022-10-15T08:05:03.093Z,16.25
2022-10-15T08:10:02.739Z,16.32
2022-10-15T08:15:02.594Z,16.22
2022-10-15T08:20:02.640Z,16.3
2022-10-15T08:25:02.271Z,16.42
2022-10-15T08:30:02.952Z,16.59
2022-10-15T08:35:02.652Z,16.95
2022-10-15T08:40:02.442Z,17.21
2022-10-15T08:45:03.121Z,17.07
2022-10-15T08:50:02.717Z,17.42
2022-10-15T08:55:03.638Z,17.82
2022-10-15T09:00:03.140Z,18.07
2022-10-15T09:05:02.740Z,18.1
2022-10-15T09:10:02.393Z,17.77
2022-10-15T09:15:03.064Z,17.64
2022-10-15T09:20:02.815Z,17.72
2022-10-15T09:25:02.465Z,17.33
2022-10-15T09:30:02.979Z,17.14
2022-10-15T09:35:02.572Z,17.22
2022-10-15T09:40:02.323Z,17.36
2022-10-15T09:45:02.984Z,17.49
2022-10-15T09:50:02.633Z,17.46
2022-10-15T09:55:03.821Z,17.37
2022-10-15T10:00:03.210Z,17.4
2022-10-15T10:05:08.620Z,17.25
2022-10-15T10:10:02.541Z,17.07
2022-10-15T10:15:03.263Z,17.01
2022-10-15T10:20:02.954Z,16.93
2022-10-15T10:25:02.591Z,16.82
2022-10-15T10:30:03.374Z,16.89
2022-10-15T10:35:02.961Z,16.75
2022-10-15T10:40:02.591Z,16.96
2022-10-15T10:45:03.232Z,17.42
2022-10-15T10:50:02.684Z,17.78
2022-10-15T10:55:04.130Z,18.67
2022-10-15T11:00:02.983Z,19.02
2022-10-15T11:05:02.602Z,18.43
2022-10-15T11:10:03.528Z,19.46
2022-10-15T11:15:03.211Z,19.51
2022-10-15T11:21:03.044Z,19.29
2022-10-15T11:25:06.884Z,18.24
2022-10-15T11:30:02.352Z,18.56
2022-10-15T11:35:03.107Z,20.1
2022-10-15T11:40:02.752Z,19.46
2022-10-15T11:45:02.574Z,18.41
2022-10-15T11:50:03.446Z,18.51
2022-10-15T11:55:04.270Z,18.61
2022-10-15T12:00:02.885Z,19.79
2022-10-15T12:05:03.416Z,22.15
2022-10-15T12:10:03.080Z,19.52
2022-10-15T12:15:03.317Z,18.69
2022-10-15T12:20:03.263Z,18.78
2022-10-15T12:25:02.929Z,19.25
2022-10-15T12:30:03.554Z,19.13
2022-10-15T12:35:03.125Z,19.05
2022-10-15T12:40:02.888Z,19.09
2022-10-15T12:45:03.596Z,19.24
2022-10-15T12:50:03.081Z,19.09
2022-10-15T12:55:03.665Z,19.69
2022-10-15T13:00:03.645Z,20.39
2022-10-15T13:05:03.290Z,20.15
2022-10-15T13:10:03.327Z,19.35
2022-10-15T13:15:02.820Z,20.49
2022-10-15T13:20:03.562Z,19.3
2022-10-15T13:25:03.252Z,19.77
2022-10-15T13:30:02.905Z,20.83
2022-10-15T13:35:03.471Z,20.3
2022-10-15T13:40:08.966Z,20.47
2022-10-15T13:45:02.724Z,21.93
2022-10-15T13:50:03.249Z,21.04
2022-10-15T13:55:04.087Z,19.08
2022-10-15T14:00:02.406Z,21.55
2022-10-15T14:05:03.168Z,20.56
2022-10-15T14:10:02.821Z,20.19
2022-10-15T14:15:02.480Z,20.77
2022-10-15T14:20:27.756Z,20.58
2022-10-15T14:25:02.687Z,20.62
2022-10-15T14:30:02.293Z,19.8
2022-10-15T14:35:08.630Z,20.45
2022-10-15T14:40:02.826Z,19.87
2022-10-15T14:45:03.536Z,19.54
2022-10-15T14:50:03.118Z,19.05
2022-10-15T14:55:03.705Z,18.86
2022-10-15T15:00:03.410Z,18.86
2022-10-15T15:05:03.058Z,18.97
2022-10-15T15:10:02.702Z,18.72
2022-10-15T15:15:03.478Z,18.5
2022-10-15T15:20:05.913Z,18.18
2022-10-15T15:25:02.755Z,17.92
2022-10-15T15:30:03.416Z,17.7
2022-10-15T15:35:03.027Z,17.47
2022-10-15T15:40:02.759Z,17.33
2022-10-15T15:45:03.387Z,17.01
2022-10-15T15:50:02.962Z,16.78
2022-10-15T15:55:04.636Z,16.55
2022-10-15T16:00:03.729Z,16.43
2022-10-15T16:05:03.387Z,16.35
2022-10-15T16:10:02.786Z,16.45
2022-10-15T16:15:02.440Z,16.45
2022-10-15T16:20:03.205Z,16.55
2022-10-15T16:25:02.912Z,16.63
2022-10-15T16:30:03.193Z,16.63
2022-10-15T16:35:03.048Z,16.77
2022-10-15T16:40:02.949Z,16.63
2022-10-15T16:45:03.668Z,16.32
2022-10-15T16:50:03.609Z,16.33
2022-10-15T16:55:04.029Z,16.33
2022-10-15T17:00:03.616Z,16.34
2022-10-15T17:05:03.176Z,16.2
2022-10-15T17:10:03.008Z,16.06
2022-10-15T17:15:03.421Z,16.16
2022-10-15T17:20:03.071Z,16.17
2022-10-15T17:25:02.745Z,16.25
2022-10-15T17:30:03.162Z,16.23
2022-10-15T17:35:04.499Z,16.14
2022-10-15T17:40:02.632Z,15.94
2022-10-15T17:45:03.195Z,15.93
2022-10-15T17:50:02.884Z,15.96
2022-10-15T17:55:03.694Z,16.02
2022-10-15T18:00:03.165Z,16.16
2022-10-15T18:05:02.925Z,16.26
2022-10-15T18:10:02.442Z,16.16
2022-10-15T18:15:02.970Z,16.18
2022-10-15T18:20:03.015Z,16.28
2022-10-15T18:25:02.464Z,16.31
2022-10-15T18:30:03.140Z,16.06
2022-10-15T18:35:02.909Z,15.9
2022-10-15T18:40:02.613Z,15.76
2022-10-15T18:45:02.389Z,15.66
2022-10-15T18:50:02.991Z,15.61
2022-10-15T18:55:03.816Z,15.67
2022-10-15T19:00:02.232Z,15.69
2022-10-15T19:05:02.902Z,15.89
2022-10-15T19:10:02.529Z,16.05
2022-10-15T19:15:03.235Z,16.23
2022-10-15T19:20:03.020Z,16.45
2022-10-15T19:25:02.659Z,16.6
2022-10-15T19:30:02.331Z,16.69
2022-10-15T19:35:02.893Z,16.73
2022-10-15T19:40:02.630Z,16.85
2022-10-15T19:45:02.489Z,16.96
2022-10-15T19:50:03.293Z,16.99
2022-10-15T19:55:03.844Z,16.96
2022-10-15T20:00:03.649Z,16.81
2022-10-15T20:05:03.134Z,16.87
2022-10-15T20:10:03.014Z,16.92
2022-10-15T20:15:03.590Z,16.95
2022-10-15T20:20:03.241Z,16.92
2022-10-15T20:25:02.966Z,16.82
2022-10-15T20:30:02.662Z,16.7
2022-10-15T20:35:03.796Z,16.51
2022-10-15T20:40:02.901Z,16.35
2022-10-15T20:45:03.601Z,16.15
2022-10-15T20:50:04.483Z,16.08
2022-10-15T20:55:03.716Z,16.26
2022-10-15T21:00:03.606Z,16.7
2022-10-15T21:05:02.951Z,16.88
2022-10-15T21:10:02.680Z,17.04
2022-10-15T21:15:03.349Z,16.95
2022-10-15T21:20:03.026Z,16.99
2022-10-15T21:25:02.619Z,16.96
2022-10-15T21:30:03.297Z,16.95
2022-10-15T21:35:02.945Z,16.79
2022-10-15T21:40:02.662Z,16.83
2022-10-15T21:45:03.365Z,16.69
2022-10-15T21:50:02.930Z,16.78
2022-10-15T21:55:05.223Z,16.85
2022-10-15T22:00:03.642Z,16.84
2022-10-15T22:05:03.003Z,16.85
2022-10-15T22:10:02.994Z,16.77
2022-10-15T22:15:02.718Z,16.69
2022-10-15T22:20:03.411Z,16.68
2022-10-15T22:25:03.203Z,16.49
2022-10-15T22:30:02.897Z,16.21
2022-10-15T22:35:03.391Z,16.08
2022-10-15T22:40:03.210Z,15.97
2022-10-15T22:45:03.045Z,15.81
2022-10-15T22:55:03.771Z,15.47
2022-10-15T23:00:03.646Z,15.29
2022-10-15T23:05:03.402Z,15.29
2022-10-15T23:10:03.047Z,15.2
2022-10-15T23:15:02.482Z,15.22
2022-10-15T23:20:02.629Z,15.07
2022-10-15T23:25:03.264Z,15.08
2022-10-15T23:30:25.550Z,15.04
2022-10-15T23:35:02.820Z,14.89
2022-10-15T23:40:02.848Z,14.72
2022-10-15T23:45:02.698Z,14.73
2022-10-15T23:50:03.318Z,15.01
2022-10-15T23:55:03.988Z,15.15
